Time;durP1;ratioP1;P1;durP2;ratioP2;P2;SDS_P1;SDS_P2;PMS_P1;PMS_P2;Temp;Humidity;BMP_temperature;BMP_pressure;BME280_temperature;BME280_humidity;BME280_pressure;Samples;Min_cycle;Max_cycle;Signal;HPM_P1;HPM_P2
2023/04/18 00:02:01;;;;;;;39.43;21.23;;;;;;;;;;7748378;23;20020;-81
2023/04/18 00:05:04;;;;;;;46.27;24.03;;;;;;;;;;7714646;23;19997;-75
2023/04/18 00:08:04;;;;;;;37.40;19.60;;;;;;;;;;7711715;23;20219;-74
2023/04/18 00:11:04;;;;;;;36.70;19.13;;;;;;;;;;7712069;23;20050;-74
2023/04/18 00:14:05;;;;;;;33.93;19.47;;;;;;;;;;7722401;23;19993;-79
2023/04/18 00:17:09;;;;;;;29.30;17.10;;;;;;;;;;7737451;23;19977;-82
2023/04/18 00:20:10;;;;;;;28.58;16.50;;;;;;;;;;7749379;23;20015;-79
2023/04/18 00:23:12;;;;;;;28.07;17.50;;;;;;;;;;7749437;23;20037;-81
2023/04/18 00:26:12;;;;;;;35.90;19.42;;;;;;;;;;7741471;23;20032;-84
2023/04/18 00:29:13;;;;;;;31.33;16.33;;;;;;;;;;7726589;23;20003;-86
2023/04/18 00:32:13;;;;;;;28.13;14.80;;;;;;;;;;7733017;23;19977;-88
2023/04/18 00:35:13;;;;;;;21.77;11.73;;;;;;;;;;7698457;23;20386;-83
2023/04/18 00:38:15;;;;;;;18.88;11.02;;;;;;;;;;7730983;23;19992;-86
2023/04/18 00:41:17;;;;;;;19.90;11.70;;;;;;;;;;7724695;23;20019;-88
2023/04/18 00:44:17;;;;;;;20.50;12.38;;;;;;;;;;7727767;23;19989;-89
2023/04/18 00:47:17;;;;;;;18.47;10.87;;;;;;;;;;7726546;23;19989;-87
2023/04/18 00:50:18;;;;;;;15.15;9.02;;;;;;;;;;7728415;23;20016;-86
2023/04/18 00:53:18;;;;;;;15.15;8.63;;;;;;;;;;7728014;23;20096;-87
2023/04/18 00:56:19;;;;;;;16.07;8.77;;;;;;;;;;7702635;23;20027;-85
2023/04/18 00:59:19;;;;;;;15.27;8.70;;;;;;;;;;7726853;23;20044;-87
2023/04/18 01:02:19;;;;;;;17.23;10.10;;;;;;;;;;7727548;23;20080;-84
2023/04/18 01:05:23;;;;;;;18.57;10.23;;;;;;;;;;7726839;23;20051;-88
2023/04/18 01:08:23;;;;;;;19.52;11.23;;;;;;;;;;7729267;23;20036;-84
2023/04/18 01:11:23;;;;;;;29.77;18.20;;;;;;;;;;7699794;23;19992;-86
2023/04/18 01:14:23;;;;;;;37.55;20.63;;;;;;;;;;7727292;23;20314;-84
2023/04/18 01:17:24;;;;;;;41.10;20.30;;;;;;;;;;7721374;23;20000;-87
2023/04/18 01:20:25;;;;;;;36.47;18.50;;;;;;;;;;7725885;23;20071;-86
2023/04/18 01:23:25;;;;;;;30.77;16.70;;;;;;;;;;7721571;23;20027;-88
2023/04/18 01:26:26;;;;;;;31.37;16.17;;;;;;;;;;7725292;23;20024;-87
2023/04/18 01:29:26;;;;;;;28.10;14.70;;;;;;;;;;7723741;23;20000;-88
2023/04/18 01:32:26;;;;;;;29.87;15.13;;;;;;;;;;7721717;23;20333;-88
2023/04/18 01:35:27;;;;;;;25.93;15.53;;;;;;;;;;7714023;23;20345;-87
2023/04/18 01:38:28;;;;;;;26.87;13.97;;;;;;;;;;7721817;23;20003;-85
2023/04/18 01:41:31;;;;;;;27.92;15.30;;;;;;;;;;7720164;23;20000;-88
2023/04/18 01:44:31;;;;;;;24.83;14.15;;;;;;;;;;7721017;23;19989;-87
2023/04/18 01:47:31;;;;;;;40.50;17.23;;;;;;;;;;7725835;23;20001;-87
2023/04/18 01:50:31;;;;;;;37.27;18.63;;;;;;;;;;7728079;23;19997;-87
2023/04/18 01:53:32;;;;;;;33.73;18.00;;;;;;;;;;7733505;23;19996;-86
2023/04/18 01:56:32;;;;;;;35.92;19.30;;;;;;;;;;7739136;23;20481;-86
2023/04/18 01:59:32;;;;;;;34.30;17.97;;;;;;;;;;7735659;23;20026;-89
2023/04/18 02:02:32;;;;;;;33.30;17.57;;;;;;;;;;7732376;23;20017;-83
2023/04/18 02:05:34;;;;;;;27.30;16.93;;;;;;;;;;7727065;23;20062;-88
2023/04/18 02:08:34;;;;;;;;;;;;;;;;;;7730748;23;20437;-86
2023/04/18 02:11:34;;;;;;;31.98;15.13;;;;;;;;;;7722069;23;19910;-89
2023/04/18 02:14:35;;;;;;;38.33;18.60;;;;;;;;;;7718143;23;20068;-89
2023/04/18 02:17:35;;;;;;;28.53;16.80;;;;;;;;;;7722685;23;20016;-89
2023/04/18 02:20:36;;;;;;;26.67;12.63;;;;;;;;;;7723193;23;20064;-88
2023/04/18 02:23:36;;;;;;;24.93;14.37;;;;;;;;;;7718420;23;19993;-75
2023/04/18 02:26:36;;;;;;;24.90;13.73;;;;;;;;;;7710862;23;20003;-75
2023/04/18 02:29:36;;;;;;;21.70;12.98;;;;;;;;;;7711714;23;20011;-75
2023/04/18 02:32:37;;;;;;;21.23;13.50;;;;;;;;;;7714001;23;19997;-75
2023/04/18 02:35:37;;;;;;;21.53;12.43;;;;;;;;;;7713034;23;19993;-74
2023/04/18 02:38:37;;;;;;;20.43;12.20;;;;;;;;;;7713157;23;20082;-75
2023/04/18 02:41:39;;;;;;;18.33;11.37;;;;;;;;;;7713003;23;20076;-75
2023/04/18 02:44:40;;;;;;;18.92;11.57;;;;;;;;;;7686207;23;20001;-74
2023/04/18 02:47:41;;;;;;;21.23;11.93;;;;;;;;;;7713613;23;19993;-75
2023/04/18 02:50:42;;;;;;;20.10;10.57;;;;;;;;;;7712951;23;20027;-75
2023/04/18 02:53:43;;;;;;;20.10;11.60;;;;;;;;;;7713246;23;19997;-74
2023/04/18 02:56:43;;;;;;;22.03;12.67;;;;;;;;;;7712657;23;19992;-74
2023/04/18 02:59:43;;;;;;;19.50;12.30;;;;;;;;;;7686311;23;20000;-74
2023/04/18 03:02:43;;;;;;;20.07;11.67;;;;;;;;;;7712324;23;20483;-74
2023/04/18 03:05:44;;;;;;;16.70;10.37;;;;;;;;;;7713082;23;20007;-74
2023/04/18 03:08:44;;;;;;;19.03;10.90;;;;;;;;;;7686041;23;20009;-73
2023/04/18 03:11:45;;;;;;;24.97;14.57;;;;;;;;;;7713072;23;20084;-74
2023/04/18 03:14:45;;;;;;;31.33;15.90;;;;;;;;;;7712831;23;20000;-74
2023/04/18 03:17:46;;;;;;;26.33;16.87;;;;;;;;;;7712552;23;20080;-74
2023/04/18 03:20:46;;;;;;;26.73;15.83;;;;;;;;;;7713030;23;20001;-74
2023/04/18 03:23:47;;;;;;;29.33;16.00;;;;;;;;;;7712630;23;20333;-73
2023/04/18 03:26:47;;;;;;;23.70;15.38;;;;;;;;;;7712108;23;20052;-73
2023/04/18 03:29:47;;;;;;;23.20;13.63;;;;;;;;;;7713027;23;20065;-73
2023/04/18 03:32:48;;;;;;;25.42;13.52;;;;;;;;;;7711515;23;19992;-82
2023/04/18 03:35:48;;;;;;;20.42;12.77;;;;;;;;;;7714633;23;20003;-82
2023/04/18 03:38:48;;;;;;;21.17;12.77;;;;;;;;;;7712608;23;20778;-82
2023/04/18 03:41:51;;;;;;;21.40;13.23;;;;;;;;;;7712991;23;20000;-83
2023/04/18 03:44:51;;;;;;;27.55;13.73;;;;;;;;;;7712997;23;19997;-74
2023/04/18 03:47:51;;;;;;;26.57;15.10;;;;;;;;;;7712414;23;20058;-73
2023/04/18 03:50:51;;;;;;;26.03;13.87;;;;;;;;;;7711160;23;20004;-74
2023/04/18 03:53:51;;;;;;;27.60;14.67;;;;;;;;;;7711805;23;20009;-75
2023/04/18 03:56:52;;;;;;;26.33;14.53;;;;;;;;;;7712124;23;20545;-73
2023/04/18 03:59:53;;;;;;;24.37;13.70;;;;;;;;;;7712006;23;20008;-73
2023/04/18 04:02:53;;;;;;;25.33;15.10;;;;;;;;;;7711854;23;20512;-73
2023/04/18 04:05:53;;;;;;;21.90;12.80;;;;;;;;;;7711538;23;19997;-74
2023/04/18 04:08:54;;;;;;;24.80;15.63;;;;;;;;;;7711776;23;20011;-74
2023/04/18 04:11:54;;;;;;;26.53;16.03;;;;;;;;;;7712130;23;20001;-73
2023/04/18 04:14:54;;;;;;;29.67;15.30;;;;;;;;;;7711806;23;20460;-73
2023/04/18 04:17:55;;;;;;;27.13;14.97;;;;;;;;;;7711626;23;20058;-74
2023/04/18 04:20:57;;;;;;;30.33;16.03;;;;;;;;;;7711813;23;19999;-74
2023/04/18 04:23:58;;;;;;;27.55;15.95;;;;;;;;;;7711435;23;19996;-74
2023/04/18 04:26:58;;;;;;;28.48;15.40;;;;;;;;;;7711800;23;20023;-75
2023/04/18 04:29:59;;;;;;;23.27;14.00;;;;;;;;;;7711586;23;20001;-74
2023/04/18 04:33:00;;;;;;;29.67;15.63;;;;;;;;;;7684512;23;20271;-74
2023/04/18 04:36:00;;;;;;;26.33;15.07;;;;;;;;;;7711925;23;20373;-74
2023/04/18 04:39:03;;;;;;;26.10;15.70;;;;;;;;;;7711543;23;19992;-74
2023/04/18 04:42:04;;;;;;;27.40;16.48;;;;;;;;;;7711409;23;20429;-74
2023/04/18 04:45:07;;;;;;;27.05;17.30;;;;;;;;;;7712363;23;20099;-82
2023/04/18 04:48:07;;;;;;;23.92;15.73;;;;;;;;;;7712685;23;20008;-83
2023/04/18 04:51:07;;;;;;;24.47;15.97;;;;;;;;;;7712082;23;19992;-84
2023/04/18 04:54:08;;;;;;;24.70;14.57;;;;;;;;;;7711907;23;20000;-84
2023/04/18 04:57:08;;;;;;;28.43;15.57;;;;;;;;;;7711702;23;19997;-84
2023/04/18 05:00:08;;;;;;;29.80;16.70;;;;;;;;;;7712360;23;20329;-84
2023/04/18 05:03:09;;;;;;;29.27;15.83;;;;;;;;;;7711545;23;20063;-82
2023/04/18 05:06:09;;;;;;;25.60;14.63;;;;;;;;;;7711889;23;20000;-84
2023/04/18 05:09:11;;;;;;;26.17;14.47;;;;;;;;;;7711357;23;20348;-84
2023/04/18 05:12:13;;;;;;;26.60;15.70;;;;;;;;;;7712066;23;20016;-85
2023/04/18 05:15:14;;;;;;;28.95;16.08;;;;;;;;;;7714057;23;20390;-84
2023/04/18 05:18:14;;;;;;;23.55;15.52;;;;;;;;;;7714454;23;20460;-83
2023/04/18 05:21:15;;;;;;;24.37;16.73;;;;;;;;;;7713607;23;20004;-83
2023/04/18 05:24:15;;;;;;;26.83;15.67;;;;;;;;;;7716684;23;20000;-83
2023/04/18 05:27:15;;;;;;;23.13;15.45;;;;;;;;;;7714130;23;20071;-82
2023/04/18 05:30:16;;;;;;;26.30;16.40;;;;;;;;;;7713641;23;20001;-83
2023/04/18 05:33:16;;;;;;;29.33;16.80;;;;;;;;;;7713035;23;19999;-83
2023/04/18 05:36:16;;;;;;;27.55;16.27;;;;;;;;;;7715136;23;20024;-84
2023/04/18 05:39:17;;;;;;;23.93;16.67;;;;;;;;;;7712614;23;20046;-84
2023/04/18 05:42:17;;;;;;;30.03;15.47;;;;;;;;;;7714289;23;19997;-83
2023/04/18 05:45:17;;;;;;;22.57;14.90;;;;;;;;;;7713918;23;19993;-84
2023/04/18 05:48:18;;;;;;;25.43;15.80;;;;;;;;;;7712818;23;20023;-83
2023/04/18 05:51:18;;;;;;;24.60;14.57;;;;;;;;;;7711782;23;20000;-84
2023/04/18 05:54:20;;;;;;;21.73;15.23;;;;;;;;;;7710831;23;20047;-74
2023/04/18 05:57:20;;;;;;;23.40;14.10;;;;;;;;;;7710541;23;19997;-74
2023/04/18 06:00:22;;;;;;;22.60;13.43;;;;;;;;;;7710015;23;19996;-74
2023/04/18 06:03:22;;;;;;;25.20;14.43;;;;;;;;;;7710452;23;20078;-84
2023/04/18 06:06:22;;;;;;;23.15;14.88;;;;;;;;;;7713666;23;20000;-84
2023/04/18 06:09:22;;;;;;;23.23;14.30;;;;;;;;;;7713711;23;20080;-79
2023/04/18 06:12:23;;;;;;;21.40;13.33;;;;;;;;;;7686765;23;20435;-84
2023/04/18 06:15:23;;;;;;;19.30;12.40;;;;;;;;;;7712770;23;20059;-82
2023/04/18 06:18:24;;;;;;;17.67;12.33;;;;;;;;;;7712621;23;20064;-84
2023/04/18 06:21:25;;;;;;;22.50;12.70;;;;;;;;;;7712428;23;20000;-84
2023/04/18 06:24:25;;;;;;;18.33;12.80;;;;;;;;;;7713439;23;20354;-84
2023/04/18 06:27:26;;;;;;;19.57;12.70;;;;;;;;;;7712872;23;20484;-83
2023/04/18 06:30:26;;;;;;;17.57;12.60;;;;;;;;;;7712912;23;20000;-84
2023/04/18 06:33:26;;;;;;;23.87;13.93;;;;;;;;;;7713418;23;20330;-84
2023/04/18 06:36:27;;;;;;;21.85;12.65;;;;;;;;;;7712930;23;20050;-84
2023/04/18 06:39:27;;;;;;;17.13;12.23;;;;;;;;;;7712627;23;20024;-86
2023/04/18 06:42:27;;;;;;;23.57;14.67;;;;;;;;;;7711004;23;19997;-85
2023/04/18 06:45:30;;;;;;;20.93;11.57;;;;;;;;;;7712447;23;20008;-84
2023/04/18 06:48:31;;;;;;;20.25;12.45;;;;;;;;;;7713029;23;20382;-84
2023/04/18 06:51:31;;;;;;;18.83;13.23;;;;;;;;;;7712551;23;19997;-83
2023/04/18 06:54:31;;;;;;;19.30;12.03;;;;;;;;;;7712380;23;20528;-84
2023/04/18 06:57:31;;;;;;;17.80;12.77;;;;;;;;;;7712015;23;19993;-84
2023/04/18 07:00:32;;;;;;;19.47;12.23;;;;;;;;;;7712111;23;20055;-85
2023/04/18 07:03:32;;;;;;;17.17;12.63;;;;;;;;;;7710305;23;20425;-75
2023/04/18 07:06:33;;;;;;;19.17;12.60;;;;;;;;;;7711411;23;20027;-74
2023/04/18 07:09:33;;;;;;;21.50;15.00;;;;;;;;;;7711505;23;20333;-75
2023/04/18 07:12:34;;;;;;;19.47;12.00;;;;;;;;;;7711515;23;19996;-85
2023/04/18 07:15:35;;;;;;;22.90;12.63;;;;;;;;;;7708705;23;19996;-85
2023/04/18 07:18:35;;;;;;;19.57;11.37;;;;;;;;;;7712882;23;20004;-86
2023/04/18 07:21:36;;;;;;;17.30;12.47;;;;;;;;;;7686114;23;20004;-84
2023/04/18 07:24:38;;;;;;;17.05;10.75;;;;;;;;;;7713758;23;19997;-85
2023/04/18 07:27:38;;;;;;;16.63;10.27;;;;;;;;;;7712737;23;20433;-84
2023/04/18 07:30:39;;;;;;;14.37;9.70;;;;;;;;;;7711433;23;20019;-85
2023/04/18 07:33:39;;;;;;;16.23;9.00;;;;;;;;;;7711613;23;20039;-83
2023/04/18 07:36:39;;;;;;;13.67;9.63;;;;;;;;;;7708118;23;20421;-85
2023/04/18 07:39:40;;;;;;;17.43;10.47;;;;;;;;;;7710930;23;20440;-85
2023/04/18 07:42:42;;;;;;;16.57;10.10;;;;;;;;;;7711213;23;20005;-85
2023/04/18 07:45:42;;;;;;;13.77;10.00;;;;;;;;;;7710772;23;20008;-84
2023/04/18 07:48:42;;;;;;;12.97;9.40;;;;;;;;;;7709108;23;20052;-84
2023/04/18 07:51:42;;;;;;;14.47;9.67;;;;;;;;;;7717672;23;19992;-79
2023/04/18 07:54:42;;;;;;;12.48;9.05;;;;;;;;;;7740298;23;19993;-83
2023/04/18 07:57:43;;;;;;;13.60;9.27;;;;;;;;;;7740843;23;20007;-81
2023/04/18 08:00:43;;;;;;;12.43;8.60;;;;;;;;;;7724932;23;20005;-83
2023/04/18 08:03:44;;;;;;;11.30;8.37;;;;;;;;;;7713524;23;19997;-83
2023/04/18 08:06:45;;;;;;;15.02;9.18;;;;;;;;;;7712087;23;20398;-83
2023/04/18 08:09:45;;;;;;;13.00;9.17;;;;;;;;;;7712653;23;20005;-81
2023/04/18 08:12:45;;;;;;;11.07;7.87;;;;;;;;;;7727441;23;20019;-82
2023/04/18 08:15:45;;;;;;;13.17;7.87;;;;;;;;;;7741054;23;19989;-81
2023/04/18 08:18:46;;;;;;;14.13;7.93;;;;;;;;;;7739238;23;20027;-83
2023/04/18 08:21:49;;;;;;;14.30;8.07;;;;;;;;;;7723346;23;20008;-86
2023/04/18 08:24:49;;;;;;;13.18;7.78;;;;;;;;;;7711934;23;20495;-75
2023/04/18 08:27:49;;;;;;;11.52;6.82;;;;;;;;;;7711687;23;19996;-75
2023/04/18 08:30:50;;;;;;;11.43;7.13;;;;;;;;;;7683860;23;20432;-74
2023/04/18 08:33:51;;;;;;;13.75;6.70;;;;;;;;;;7711654;23;20509;-74
2023/04/18 08:36:51;;;;;;;13.77;7.40;;;;;;;;;;7710965;23;20004;-74
2023/04/18 08:39:51;;;;;;;9.27;6.43;;;;;;;;;;7712073;23;20337;-74
2023/04/18 08:42:52;;;;;;;13.77;7.93;;;;;;;;;;7709548;23;20356;-76
2023/04/18 08:45:57;;;;;;;10.15;6.38;;;;;;;;;;7709092;23;20055;-74
2023/04/18 08:48:59;;;;;;;8.95;5.93;;;;;;;;;;7710420;23;20012;-75
2023/04/18 08:52:01;;;;;;;10.13;5.85;;;;;;;;;;7709905;23;20372;-75
2023/04/18 08:55:02;;;;;;;9.32;6.10;;;;;;;;;;7711085;23;20003;-74
2023/04/18 08:58:05;;;;;;;10.50;5.93;;;;;;;;;;7710993;23;20421;-75
2023/04/18 09:01:06;;;;;;;11.95;5.95;;;;;;;;;;7710751;23;20016;-75
2023/04/18 09:04:06;;;;;;;8.90;6.00;;;;;;;;;;7710521;23;20087;-75
2023/04/18 09:07:08;;;;;;;9.70;6.00;;;;;;;;;;7685324;23;20095;-75
2023/04/18 09:10:08;;;;;;;12.60;5.97;;;;;;;;;;7709824;23;20079;-75
2023/04/18 09:13:09;;;;;;;10.20;5.97;;;;;;;;;;7711224;23;20046;-75
2023/04/18 09:16:10;;;;;;;10.67;5.70;;;;;;;;;;7710829;23;19992;-74
2023/04/18 09:19:17;;;;;;;9.93;5.35;;;;;;;;;;7711166;23;20004;-75
2023/04/18 09:22:17;;;;;;;10.30;5.25;;;;;;;;;;7710402;23;20337;-86
2023/04/18 09:25:27;;;;;;;8.37;5.27;;;;;;;;;;7711244;23;20024;-83
2023/04/18 09:28:29;;;;;;;10.97;5.97;;;;;;;;;;7711530;23;20008;-85
2023/04/18 09:31:29;;;;;;;;;;;;;;;;;;7712423;23;20027;-85
2023/04/18 09:34:32;;;;;;;10.05;5.10;;;;;;;;;;7710939;23;19978;-85
2023/04/18 09:37:33;;;;;;;9.75;4.90;;;;;;;;;;7710852;23;20007;-85
2023/04/18 09:40:34;;;;;;;12.45;6.55;;;;;;;;;;7709045;23;20005;-85
2023/04/18 09:43:35;;;;;;;7.50;4.73;;;;;;;;;;7709768;23;19996;-85
2023/04/18 09:46:36;;;;;;;8.05;4.90;;;;;;;;;;7709950;23;20437;-85
2023/04/18 09:49:36;;;;;;;7.00;5.13;;;;;;;;;;7710308;23;19997;-85
2023/04/18 09:52:40;;;;;;;10.60;5.00;;;;;;;;;;7710507;23;19996;-86
2023/04/18 09:55:41;;;;;;;8.75;5.18;;;;;;;;;;7711404;23;19996;-84
2023/04/18 09:58:42;;;;;;;10.10;6.13;;;;;;;;;;7685315;23;20468;-87
2023/04/18 10:01:46;;;;;;;8.10;5.15;;;;;;;;;;7683532;23;20393;-84
2023/04/18 10:04:48;;;;;;;11.18;4.50;;;;;;;;;;7711233;23;19997;-85
2023/04/18 10:07:48;;;;;;;10.23;4.93;;;;;;;;;;7709441;23;19996;-85
2023/04/18 10:10:49;;;;;;;10.60;5.03;;;;;;;;;;7709740;23;20008;-87
2023/04/18 10:13:52;;;;;;;9.97;5.30;;;;;;;;;;7684503;23;20224;-85
2023/04/18 10:16:52;;;;;;;6.93;4.47;;;;;;;;;;7682409;23;20075;-85
2023/04/18 10:20:03;;;;;;;9.67;5.10;;;;;;;;;;7710485;23;20096;-83
2023/04/18 10:23:22;;;;;;;11.73;4.85;;;;;;;;;;7709807;23;20088;-83
2023/04/18 10:26:42;;;;;;;6.30;4.60;;;;;;;;;;7709812;23;20043;-83
2023/04/18 10:29:47;;;;;;;7.38;4.63;;;;;;;;;;7709255;23;20004;-83
2023/04/18 10:32:48;;;;;;;7.75;5.03;;;;;;;;;;7708987;23;20064;-75
2023/04/18 10:35:55;;;;;;;8.53;4.73;;;;;;;;;;7709385;23;20023;-75
2023/04/18 10:38:59;;;;;;;6.60;4.70;;;;;;;;;;7709611;23;20390;-75
2023/04/18 10:41:59;;;;;;;8.40;5.10;;;;;;;;;;7708998;23;20027;-75
2023/04/18 10:45:18;;;;;;;8.87;4.67;;;;;;;;;;7682809;23;20009;-85
2023/04/18 10:48:28;;;;;;;12.50;5.18;;;;;;;;;;7709188;23;20337;-86
2023/04/18 10:51:29;;;;;;;10.05;4.85;;;;;;;;;;7711158;23;19992;-84
2023/04/18 10:54:48;;;;;;;11.43;5.00;;;;;;;;;;7712567;23;19993;-83
2023/04/18 10:57:50;;;;;;;11.60;5.00;;;;;;;;;;7712035;23;19996;-83
2023/04/18 11:00:50;;;;;;;9.82;5.45;;;;;;;;;;7685201;23;20372;-84
2023/04/18 11:03:51;;;;;;;11.70;5.57;;;;;;;;;;7712454;23;19999;-82
2023/04/18 11:06:55;;;;;;;5.90;3.80;;;;;;;;;;7711948;23;20635;-85
2023/04/18 11:09:56;;;;;;;8.88;3.95;;;;;;;;;;7711698;23;20008;-84
2023/04/18 11:12:58;;;;;;;7.97;4.50;;;;;;;;;;7711857;23;20443;-84
2023/04/18 11:15:58;;;;;;;9.27;5.38;;;;;;;;;;7712079;23;20001;-81
2023/04/18 11:18:59;;;;;;;7.83;4.87;;;;;;;;;;7713459;23;20024;-84
2023/04/18 11:21:59;;;;;;;8.80;5.23;;;;;;;;;;7712447;23;20073;-83
2023/04/18 11:25:00;;;;;;;6.00;3.97;;;;;;;;;;7713135;23;20000;-83
2023/04/18 11:28:01;;;;;;;9.23;4.78;;;;;;;;;;7712779;23;20079;-83
2023/04/18 11:31:02;;;;;;;12.05;5.25;;;;;;;;;;7708671;23;20063;-85
2023/04/18 11:34:02;;;;;;;7.97;4.07;;;;;;;;;;7712498;23;20368;-83
2023/04/18 11:37:06;;;;;;;7.97;4.50;;;;;;;;;;7712529;23;19993;-81
2023/04/18 11:40:10;;;;;;;8.30;4.50;;;;;;;;;;7712258;23;19992;-84
2023/04/18 11:43:18;;;;;;;7.07;3.78;;;;;;;;;;7712595;23;19996;-84
2023/04/18 11:46:18;;;;;;;5.43;3.67;;;;;;;;;;7711762;23;19996;-84
2023/04/18 11:49:25;;;;;;;5.90;3.78;;;;;;;;;;7722154;23;20341;-83
2023/04/18 11:52:26;;;;;;;8.52;4.18;;;;;;;;;;7713172;23;20034;-83
2023/04/18 11:55:26;;;;;;;6.28;3.53;;;;;;;;;;7715723;23;20035;-83
2023/04/18 11:58:31;;;;;;;5.63;3.47;;;;;;;;;;7713857;23;20425;-83
2023/04/18 12:01:33;;;;;;;7.28;3.47;;;;;;;;;;7712365;23;20009;-84
2023/04/18 12:04:48;;;;;;;5.55;3.30;;;;;;;;;;7713240;23;20012;-82
2023/04/18 12:07:48;;;;;;;4.45;3.22;;;;;;;;;;7712399;23;20024;-84
2023/04/18 12:10:49;;;;;;;11.47;3.80;;;;;;;;;;7712747;23;20427;-85
2023/04/18 12:13:53;;;;;;;5.93;2.90;;;;;;;;;;7685593;23;20001;-83
2023/04/18 12:16:53;;;;;;;6.65;3.38;;;;;;;;;;7714651;23;20467;-82
2023/04/18 12:19:54;;;;;;;7.83;3.70;;;;;;;;;;7713128;23;20083;-83
2023/04/18 12:22:56;;;;;;;4.57;3.40;;;;;;;;;;7709452;23;19997;-83
2023/04/18 12:26:00;;;;;;;5.63;3.42;;;;;;;;;;7711887;23;19993;-80
2023/04/18 12:29:00;;;;;;;4.50;3.00;;;;;;;;;;7712759;23;20000;-83
2023/04/18 12:32:00;;;;;;;7.40;3.20;;;;;;;;;;7713101;23;19997;-81
2023/04/18 12:35:02;;;;;;;5.68;2.90;;;;;;;;;;7711528;23;19993;-82
2023/04/18 12:38:03;;;;;;;3.67;2.63;;;;;;;;;;7723866;23;20460;-81
2023/04/18 12:41:04;;;;;;;4.93;2.78;;;;;;;;;;7739705;23;19976;-80
2023/04/18 12:44:05;;;;;;;5.27;3.17;;;;;;;;;;7734998;23;20046;-81
2023/04/18 12:47:05;;;;;;;7.38;4.03;;;;;;;;;;7715668;23;19992;-83
2023/04/18 12:50:07;;;;;;;5.40;3.03;;;;;;;;;;7712430;23;20028;-83
2023/04/18 12:53:07;;;;;;;6.40;2.85;;;;;;;;;;7711106;23;20004;-74
2023/04/18 12:56:07;;;;;;;5.43;3.47;;;;;;;;;;7710472;23;19992;-75
2023/04/18 12:59:08;;;;;;;6.40;3.10;;;;;;;;;;7708467;23;20000;-74
2023/04/18 13:02:08;;;;;;;9.33;3.07;;;;;;;;;;7710155;23;20529;-82
2023/04/18 13:05:12;;;;;;;5.20;3.00;;;;;;;;;;7733838;23;20019;-82
2023/04/18 13:08:12;;;;;;;7.63;3.10;;;;;;;;;;7723270;23;20000;-84
2023/04/18 13:11:12;;;;;;;5.10;3.30;;;;;;;;;;7712500;23;19996;-82
2023/04/18 13:14:13;;;;;;;7.90;2.93;;;;;;;;;;7710764;23;19992;-83
2023/04/18 13:17:13;;;;;;;5.80;2.55;;;;;;;;;;7710735;23;19993;-84
2023/04/18 13:20:13;;;;;;;4.50;2.43;;;;;;;;;;7711658;23;20000;-83
2023/04/18 13:23:14;;;;;;;9.60;3.87;;;;;;;;;;7711525;23;20055;-83
2023/04/18 13:26:14;;;;;;;6.23;2.97;;;;;;;;;;7711862;23;19997;-83
2023/04/18 13:29:14;;;;;;;11.20;5.03;;;;;;;;;;7711521;23;20429;-81
2023/04/18 13:32:14;;;;;;;4.97;3.07;;;;;;;;;;7711564;23;19989;-82
2023/04/18 13:35:15;;;;;;;6.15;3.72;;;;;;;;;;7711486;23;20318;-81
2023/04/18 13:38:15;;;;;;;14.03;5.10;;;;;;;;;;7710748;23;20007;-82
2023/04/18 13:41:15;;;;;;;11.13;4.38;;;;;;;;;;7709286;23;20007;-83
2023/04/18 13:44:15;;;;;;;11.03;5.83;;;;;;;;;;7711101;23;20080;-82
2023/04/18 13:47:16;;;;;;;15.07;6.22;;;;;;;;;;7712122;23;20000;-83
2023/04/18 13:50:16;;;;;;;12.57;5.43;;;;;;;;;;7711506;23;20000;-83
2023/04/18 13:53:17;;;;;;;13.03;6.93;;;;;;;;;;7711998;23;20043;-83
2023/04/18 13:56:17;;;;;;;12.38;5.72;;;;;;;;;;7711098;23;20016;-83
2023/04/18 13:59:18;;;;;;;11.60;5.30;;;;;;;;;;7684500;23;20520;-83
2023/04/18 14:02:18;;;;;;;7.17;3.23;;;;;;;;;;7711948;23;20021;-83
2023/04/18 14:05:18;;;;;;;6.70;3.70;;;;;;;;;;7710779;23;19996;-84
2023/04/18 14:08:18;;;;;;;6.53;2.90;;;;;;;;;;7711385;23;20035;-84
2023/04/18 14:11:19;;;;;;;7.20;3.77;;;;;;;;;;7721120;23;19996;-83
2023/04/18 14:14:22;;;;;;;8.67;4.70;;;;;;;;;;7711143;23;20003;-83
2023/04/18 14:17:22;;;;;;;11.68;4.28;;;;;;;;;;7712233;23;19989;-83
2023/04/18 14:20:22;;;;;;;8.23;2.83;;;;;;;;;;7709593;23;19992;-79
2023/04/18 14:23:22;;;;;;;6.47;3.57;;;;;;;;;;7710814;23;19992;-83
2023/04/18 14:26:22;;;;;;;10.90;4.03;;;;;;;;;;7712337;23;20004;-83
2023/04/18 14:29:23;;;;;;;8.63;4.90;;;;;;;;;;7713815;23;19996;-84
2023/04/18 14:32:23;;;;;;;11.17;5.67;;;;;;;;;;7712867;23;20040;-84
2023/04/18 14:35:23;;;;;;;9.77;4.90;;;;;;;;;;7712632;23;19996;-82
2023/04/18 14:38:25;;;;;;;14.53;6.73;;;;;;;;;;7686344;23;20401;-83
2023/04/18 14:41:25;;;;;;;16.02;6.82;;;;;;;;;;7708750;23;20009;-78
2023/04/18 14:44:26;;;;;;;12.63;7.43;;;;;;;;;;7712201;23;20410;-84
2023/04/18 14:47:30;;;;;;;10.52;5.60;;;;;;;;;;7713090;23;20325;-83
2023/04/18 14:50:30;;;;;;;6.63;4.50;;;;;;;;;;7713810;23;20031;-83
2023/04/18 14:53:30;;;;;;;11.33;4.63;;;;;;;;;;7713667;23;20477;-83
2023/04/18 14:56:31;;;;;;;11.17;6.53;;;;;;;;;;7712668;23;20000;-81
2023/04/18 14:59:31;;;;;;;11.98;5.70;;;;;;;;;;7714072;23;19999;-81
2023/04/18 15:02:31;;;;;;;11.93;5.80;;;;;;;;;;7712261;23;20012;-82
2023/04/18 15:05:33;;;;;;;8.80;5.40;;;;;;;;;;7712207;23;20035;-83
2023/04/18 15:08:33;;;;;;;13.48;5.25;;;;;;;;;;7712167;23;20001;-83
2023/04/18 15:11:34;;;;;;;11.03;5.83;;;;;;;;;;7709168;23;20387;-83
2023/04/18 15:14:34;;;;;;;16.27;7.50;;;;;;;;;;7710144;23;20029;-80
2023/04/18 15:17:34;;;;;;;10.47;6.70;;;;;;;;;;7711104;23;20007;-83
2023/04/18 15:20:35;;;;;;;10.60;6.20;;;;;;;;;;7710371;23;20357;-83
2023/04/18 15:23:36;;;;;;;11.93;6.18;;;;;;;;;;7708802;23;20063;-74
2023/04/18 15:26:36;;;;;;;11.37;7.13;;;;;;;;;;7708301;23;20102;-74
2023/04/18 15:29:37;;;;;;;15.03;7.60;;;;;;;;;;7709928;23;20008;-75
2023/04/18 15:32:41;;;;;;;15.60;6.77;;;;;;;;;;7682781;23;20015;-75
2023/04/18 15:35:41;;;;;;;15.90;10.35;;;;;;;;;;7707299;23;20005;-74
2023/04/18 15:38:42;;;;;;;13.00;6.13;;;;;;;;;;7710268;23;20020;-74
2023/04/18 15:41:42;;;;;;;9.67;5.70;;;;;;;;;;7711267;23;19992;-74
2023/04/18 15:44:42;;;;;;;9.83;5.50;;;;;;;;;;7709486;23;20368;-75
2023/04/18 15:47:42;;;;;;;13.38;7.22;;;;;;;;;;7710183;23;20441;-75
2023/04/18 15:50:47;;;;;;;12.00;6.73;;;;;;;;;;7710181;23;20001;-74
2023/04/18 15:53:48;;;;;;;10.50;5.85;;;;;;;;;;7709628;23;20003;-74
2023/04/18 15:56:48;;;;;;;11.43;6.33;;;;;;;;;;7709778;23;20317;-74
2023/04/18 15:59:48;;;;;;;10.30;6.20;;;;;;;;;;7711666;23;20004;-74
2023/04/18 16:02:48;;;;;;;13.97;6.80;;;;;;;;;;7711149;23;20449;-74
2023/04/18 16:05:49;;;;;;;15.90;8.48;;;;;;;;;;7711400;23;20477;-74
2023/04/18 16:08:50;;;;;;;13.80;6.53;;;;;;;;;;7709322;23;20366;-75
2023/04/18 16:11:51;;;;;;;12.30;7.93;;;;;;;;;;7710493;23;20047;-75
2023/04/18 16:14:52;;;;;;;15.07;8.25;;;;;;;;;;7710730;23;20004;-74
2023/04/18 16:17:52;;;;;;;13.80;8.53;;;;;;;;;;7710194;23;20051;-75
2023/04/18 16:20:52;;;;;;;11.30;8.33;;;;;;;;;;7683190;23;20003;-76
2023/04/18 16:23:52;;;;;;;10.57;6.53;;;;;;;;;;7710618;23;20007;-74
2023/04/18 16:26:54;;;;;;;16.87;8.67;;;;;;;;;;7710783;23;20413;-76
2023/04/18 16:29:54;;;;;;;18.77;8.70;;;;;;;;;;7710045;23;20023;-75
2023/04/18 16:32:54;;;;;;;15.90;8.13;;;;;;;;;;7710334;23;20011;-75
2023/04/18 16:35:58;;;;;;;13.63;7.33;;;;;;;;;;7709877;23;20043;-75
2023/04/18 16:38:58;;;;;;;12.85;8.55;;;;;;;;;;7710131;23;19993;-75
2023/04/18 16:41:59;;;;;;;14.57;8.93;;;;;;;;;;7709946;23;20333;-75
2023/04/18 16:45:00;;;;;;;13.27;8.83;;;;;;;;;;7710168;23;20413;-76
2023/04/18 16:48:00;;;;;;;17.13;9.07;;;;;;;;;;7709277;23;20100;-75
2023/04/18 16:51:01;;;;;;;14.20;8.63;;;;;;;;;;7682837;23;19996;-75
2023/04/18 16:54:01;;;;;;;22.90;10.60;;;;;;;;;;7709908;23;19996;-75
2023/04/18 16:57:02;;;;;;;18.20;10.80;;;;;;;;;;7708911;23;20425;-75
2023/04/18 17:00:03;;;;;;;20.97;8.40;;;;;;;;;;7707421;23;20119;-75
2023/04/18 17:03:05;;;;;;;17.60;9.07;;;;;;;;;;7708851;23;20013;-76
2023/04/18 17:06:06;;;;;;;15.43;8.50;;;;;;;;;;7709779;23;20418;-75
2023/04/18 17:09:07;;;;;;;18.90;8.77;;;;;;;;;;7710059;23;20011;-75
2023/04/18 17:12:08;;;;;;;14.43;8.82;;;;;;;;;;7710175;23;20328;-75
2023/04/18 17:15:08;;;;;;;13.20;8.52;;;;;;;;;;7709632;23;19996;-75
2023/04/18 17:18:08;;;;;;;22.43;9.50;;;;;;;;;;7709447;23;19993;-75
2023/04/18 17:21:11;;;;;;;18.85;9.40;;;;;;;;;;7710151;23;19985;-75
2023/04/18 17:24:11;;;;;;;16.80;7.55;;;;;;;;;;7710222;23;19999;-75
2023/04/18 17:27:11;;;;;;;14.18;8.63;;;;;;;;;;7708817;23;20000;-75
2023/04/18 17:30:12;;;;;;;18.37;10.33;;;;;;;;;;7682634;23;20433;-76
2023/04/18 17:33:12;;;;;;;16.43;9.23;;;;;;;;;;7710638;23;20019;-75
2023/04/18 17:36:12;;;;;;;21.38;8.32;;;;;;;;;;7709131;23;20311;-76
2023/04/18 17:39:15;;;;;;;17.37;9.03;;;;;;;;;;7710137;23;20002;-75
2023/04/18 17:42:15;;;;;;;18.30;10.02;;;;;;;;;;7709107;23;19999;-76
2023/04/18 17:45:16;;;;;;;24.27;13.07;;;;;;;;;;7709177;23;20009;-76
2023/04/18 17:48:16;;;;;;;18.53;11.40;;;;;;;;;;7708656;23;20074;-75